Time;durP1;ratioP1;P1;durP2;ratioP2;P2;SDS_P1;SDS_P2;PMS_P1;PMS_P2;Temp;Humidity;BMP_temperature;BMP_pressure;BME280_temperature;BME280_humidity;BME280_pressure;Samples;Min_cycle;Max_cycle;Signal;HPM_P1;HPM_P2
2022/04/07 00:02:45;;;;;;;1.08;0.70;;;;;;;8.63;100.00;96463.28;10405963;28;20528;-54
2022/04/07 00:07:48;;;;;;;1.13;0.70;;;;;;;8.64;100.00;96458.72;10406232;28;20474;-53
2022/04/07 00:12:52;;;;;;;1.73;0.90;;;;;;;8.59;100.00;96458.47;10403793;28;20049;-55
2022/04/07 00:17:57;;;;;;;1.02;0.80;;;;;;;8.59;100.00;96445.06;10387227;28;20049;-55
2022/04/07 00:23:00;;;;;;;2.35;1.00;;;;;;;8.61;100.00;96446.53;10404971;28;20041;-56
2022/04/07 00:28:04;;;;;;;1.70;0.80;;;;;;;8.70;100.00;96430.25;10404613;28;20056;-58
2022/04/07 00:33:09;;;;;;;0.98;0.75;;;;;;;8.79;100.00;96413.81;10384134;28;20176;-56
2022/04/07 00:38:12;;;;;;;2.67;0.80;;;;;;;8.75;100.00;96419.78;10403414;28;20560;-52
2022/04/07 00:43:29;;;;;;;1.30;0.70;;;;;;;8.71;100.00;96413.13;10391882;28;20133;-54
2022/04/07 00:48:35;;;;;;;2.25;1.00;;;;;;;8.68;100.00;96405.47;10413575;23;20413;-62
2022/04/07 00:53:39;;;;;;;1.77;0.80;;;;;;;8.55;100.00;96395.50;10381036;28;20056;-61
2022/04/07 00:58:44;;;;;;;1.45;0.70;;;;;;;8.61;100.00;96397.38;10228002;28;5002563;-62
2022/04/07 01:03:51;;;;;;;1.52;0.90;;;;;;;8.66;100.00;96386.03;10401343;28;20745;-62
2022/04/07 01:08:54;;;;;;;1.33;0.90;;;;;;;8.61;100.00;96379.44;10386143;28;20172;-62
2022/04/07 01:13:58;;;;;;;1.25;0.65;;;;;;;8.60;100.00;96369.72;10384497;28;20064;-61
2022/04/07 01:19:02;;;;;;;1.38;0.80;;;;;;;8.54;100.00;96367.81;10195584;28;5003020;-60
2022/04/07 01:24:07;;;;;;;1.63;0.80;;;;;;;8.55;100.00;96357.94;10391788;28;20076;-62
2022/04/07 01:29:13;;;;;;;1.35;0.98;;;;;;;8.47;100.00;96345.47;10399495;28;20954;-62
2022/04/07 01:34:19;;;;;;;2.13;0.82;;;;;;;8.40;100.00;96331.22;10397627;28;20045;-63
2022/04/07 01:39:27;;;;;;;2.35;0.90;;;;;;;8.40;100.00;96332.03;10380440;28;20072;-63
2022/04/07 01:44:34;;;;;;;1.35;0.90;;;;;;;8.26;100.00;96333.81;10382243;28;20049;-62
2022/04/07 01:49:39;;;;;;;1.23;0.70;;;;;;;8.24;100.00;96325.16;10384428;28;21132;-61
2022/04/07 01:54:43;;;;;;;0.93;0.70;;;;;;;8.26;100.00;96336.50;10382420;28;20033;-61
2022/04/07 01:59:48;;;;;;;1.05;0.70;;;;;;;8.25;100.00;96326.81;10384027;28;20078;-63
2022/04/07 02:04:55;;;;;;;3.17;1.00;;;;;;;8.21;100.00;96325.53;10386292;28;20065;-61
2022/04/07 02:09:59;;;;;;;1.25;0.80;;;;;;;8.20;100.00;96321.19;10381643;28;20077;-61
2022/04/07 02:15:04;;;;;;;1.15;0.70;;;;;;;8.14;100.00;96319.31;10385368;28;20124;-60
2022/04/07 02:20:10;;;;;;;1.05;0.85;;;;;;;8.10;100.00;96318.03;10387724;28;20045;-61
2022/04/07 02:25:13;;;;;;;2.00;0.90;;;;;;;8.05;100.00;96315.97;10384971;28;20175;-59
2022/04/07 02:30:18;;;;;;;2.47;0.98;;;;;;;8.01;100.00;96304.81;10394909;28;20038;-59
2022/04/07 02:35:27;;;;;;;1.48;0.90;;;;;;;8.06;100.00;96303.38;10397517;28;20049;-60
2022/04/07 02:40:30;;;;;;;1.92;1.00;;;;;;;8.09;100.00;96286.88;10398907;28;20052;-59
2022/04/07 02:45:42;;;;;;;2.47;0.80;;;;;;;8.15;100.00;96283.44;10395353;28;20123;-58
2022/04/07 02:50:45;;;;;;;1.50;0.70;;;;;;;8.22;100.00;96281.59;10410761;28;20049;-57
2022/04/07 02:55:48;;;;;;;1.40;0.80;;;;;;;8.28;100.00;96272.75;10449935;28;20026;-63
2022/04/07 03:00:53;;;;;;;1.17;0.70;;;;;;;8.36;100.00;96266.38;10453014;28;20109;-64
2022/04/07 03:06:03;;;;;;;1.70;0.90;;;;;;;8.50;100.00;96259.25;10457741;28;20064;-63
2022/04/07 03:11:09;;;;;;;1.65;0.70;;;;;;;8.64;100.00;96257.44;10456525;28;20022;-64
2022/04/07 03:16:14;;;;;;;0.80;0.70;;;;;;;8.74;100.00;96236.38;10440837;28;20041;-64
2022/04/07 03:21:17;;;;;;;0.60;0.60;;;;;;;8.81;100.00;96217.59;10415071;28;20077;-62
2022/04/07 03:26:20;;;;;;;1.05;0.70;;;;;;;8.83;100.00;96215.53;10384953;28;20038;-62
2022/04/07 03:31:25;;;;;;;1.25;0.70;;;;;;;8.84;100.00;96211.00;10385131;28;20144;-64
2022/04/07 03:36:29;;;;;;;1.45;0.60;;;;;;;8.83;100.00;96210.19;10384671;28;20179;-62
2022/04/07 03:41:33;;;;;;;0.57;0.50;;;;;;;8.90;100.00;96219.06;10384764;28;20513;-62
2022/04/07 03:46:37;;;;;;;1.25;0.60;;;;;;;9.01;100.00;96217.63;10379726;28;20042;-61
2022/04/07 03:51:42;;;;;;;0.50;0.50;;;;;;;9.05;100.00;96218.88;10381451;28;20099;-60
2022/04/07 03:56:46;;;;;;;0.65;0.60;;;;;;;9.04;100.00;96211.00;10382736;28;20037;-61
2022/04/07 04:01:51;;;;;;;1.13;0.80;;;;;;;8.96;100.00;96200.47;10385111;28;20029;-60
2022/04/07 04:06:55;;;;;;;1.15;0.50;;;;;;;8.96;100.00;96201.28;10384265;28;20478;-59
2022/04/07 04:11:58;;;;;;;1.25;0.68;;;;;;;9.00;100.00;96190.97;10381999;28;20052;-61
2022/04/07 04:17:04;;;;;;;0.98;0.50;;;;;;;9.07;100.00;96173.81;10384660;28;20155;-58
2022/04/07 04:22:07;;;;;;;0.95;0.60;;;;;;;9.02;100.00;96175.47;10381848;28;20045;-59
2022/04/07 04:27:12;;;;;;;0.50;0.40;;;;;;;8.98;100.00;96160.81;10382566;28;20151;-59
2022/04/07 04:32:17;;;;;;;0.68;0.50;;;;;;;8.97;100.00;96156.50;10378944;28;20048;-61
2022/04/07 04:37:25;;;;;;;1.02;0.60;;;;;;;9.04;100.00;96152.78;10382761;28;20466;-57
2022/04/07 04:42:28;;;;;;;0.75;0.50;;;;;;;9.05;100.00;96154.44;10382422;28;20127;-60
2022/04/07 04:47:33;;;;;;;0.57;0.57;;;;;;;9.09;100.00;96160.22;10381308;28;20064;-55
2022/04/07 04:52:36;;;;;;;0.47;0.40;;;;;;;9.16;100.00;96144.91;10381615;28;20114;-54
2022/04/07 04:57:39;;;;;;;1.20;0.50;;;;;;;9.14;100.00;96136.22;10383838;28;20046;-62
2022/04/07 05:02:43;;;;;;;0.82;0.50;;;;;;;9.10;100.00;96140.38;10380501;28;20052;-57
2022/04/07 05:07:46;;;;;;;1.52;0.40;;;;;;;9.11;100.00;96147.41;10380260;28;20049;-58
2022/04/07 05:12:49;;;;;;;1.48;0.50;;;;;;;9.14;100.00;96133.53;10381114;28;20056;-59
2022/04/07 05:17:55;;;;;;;1.65;0.50;;;;;;;9.13;100.00;96117.63;10380498;28;20811;-63
2022/04/07 05:22:58;;;;;;;0.30;0.30;;;;;;;9.15;100.00;96105.63;10380470;28;20065;-60
2022/04/07 05:28:01;;;;;;;0.93;0.50;;;;;;;9.17;100.00;96108.13;10381089;28;20050;-64
2022/04/07 05:33:05;;;;;;;0.98;0.47;;;;;;;9.15;100.00;96096.78;10380112;28;20132;-63
2022/04/07 05:38:09;;;;;;;0.40;0.40;;;;;;;9.14;100.00;96093.25;10378776;28;20124;-61
2022/04/07 05:43:12;;;;;;;0.50;0.38;;;;;;;9.15;100.00;96089.53;10375118;28;20064;-57
2022/04/07 05:48:16;;;;;;;0.50;0.30;;;;;;;9.14;100.00;96081.69;10380409;28;20135;-62
2022/04/07 05:53:20;;;;;;;0.73;0.20;;;;;;;9.09;100.00;96085.81;10378930;28;20084;-57
2022/04/07 05:58:23;;;;;;;0.65;0.28;;;;;;;9.13;100.00;96074.66;10379094;28;20512;-59
2022/04/07 06:03:27;;;;;;;0.63;0.25;;;;;;;9.18;100.00;96072.16;10386924;28;20084;-60
2022/04/07 06:08:30;;;;;;;0.20;0.20;;;;;;;9.31;100.00;96071.31;10387974;28;20068;-57
2022/04/07 06:13:34;;;;;;;0.20;0.20;;;;;;;9.46;100.00;96053.06;10385903;28;21305;-60
2022/04/07 06:18:39;;;;;;;0.20;0.20;;;;;;;9.54;100.00;96054.69;10386350;28;20064;-60
2022/04/07 06:23:44;;;;;;;0.35;0.20;;;;;;;9.66;100.00;96047.59;10387539;28;20045;-64
2022/04/07 06:28:47;;;;;;;0.10;0.10;;;;;;;9.87;100.00;96035.69;10388019;28;20045;-57
2022/04/07 06:33:52;;;;;;;0.30;0.20;;;;;;;9.95;100.00;96017.66;10386955;28;20052;-58
2022/04/07 06:39:09;;;;;;;0.90;0.25;;;;;;;9.94;100.00;96026.75;10388152;28;20053;-60
2022/04/07 06:44:13;;;;;;;0.20;0.20;;;;;;;10.00;100.00;96031.28;10390665;28;20116;-61
2022/04/07 06:49:17;;;;;;;0.43;0.20;;;;;;;9.98;100.00;96052.19;10420305;22;20090;-54
2022/04/07 06:54:20;;;;;;;0.20;0.20;;;;;;;9.85;100.00;96012.75;10459629;28;20053;-53
2022/04/07 06:59:23;;;;;;;0.20;0.17;;;;;;;9.77;100.00;96035.34;10465446;28;20055;-55
2022/04/07 07:04:28;;;;;;;0.20;0.20;;;;;;;9.78;100.00;96001.22;10463808;28;20480;-57
2022/04/07 07:09:31;;;;;;;0.38;0.20;;;;;;;9.89;100.00;95984.38;10461066;28;20055;-53
2022/04/07 07:14:34;;;;;;;0.28;0.10;;;;;;;9.96;100.00;95982.50;10444792;28;20044;-53
2022/04/07 07:19:38;;;;;;;0.00;0.00;;;;;;;10.03;100.00;95964.44;10465084;28;20041;-53
2022/04/07 07:24:41;;;;;;;0.20;0.20;;;;;;;10.24;100.00;95964.28;10441457;28;20155;-52
2022/04/07 07:29:44;;;;;;;0.30;0.20;;;;;;;10.28;100.00;95942.09;10463381;28;20053;-54
2022/04/07 07:34:48;;;;;;;0.10;0.10;;;;;;;10.28;100.00;95955.53;10463647;28;20048;-53
2022/04/07 07:39:51;;;;;;;2.17;0.20;;;;;;;10.40;100.00;95942.22;10462572;28;20509;-54
2022/04/07 07:44:54;;;;;;;0.20;0.20;;;;;;;10.46;100.00;95940.53;10463114;28;20174;-53
2022/04/07 07:49:59;;;;;;;0.15;0.13;;;;;;;10.40;100.00;95912.63;10461790;28;20124;-54
2022/04/07 07:55:02;;;;;;;0.10;0.10;;;;;;;10.33;100.00;95907.28;10465744;28;20683;-59
2022/04/07 08:00:07;;;;;;;0.20;0.10;;;;;;;10.41;100.00;95897.28;10457326;28;20062;-53
2022/04/07 08:05:13;;;;;;;2.10;0.20;;;;;;;10.62;100.00;95883.38;10461598;28;20041;-52
2022/04/07 08:10:16;;;;;;;0.43;0.20;;;;;;;10.70;100.00;95876.88;10460100;28;20512;-59
2022/04/07 08:15:19;;;;;;;2.00;0.20;;;;;;;10.86;100.00;95861.97;10464610;28;20047;-57
2022/04/07 08:20:23;;;;;;;0.40;0.20;;;;;;;11.04;100.00;95858.44;10459518;28;20171;-57
2022/04/07 08:25:26;;;;;;;1.00;0.28;;;;;;;11.09;100.00;95855.91;10439453;28;20059;-51
2022/04/07 08:30:33;;;;;;;0.38;0.20;;;;;;;11.02;100.00;95835.47;10464605;28;20546;-52
2022/04/07 08:35:38;;;;;;;0.70;0.20;;;;;;;11.08;100.00;95859.63;10455854;28;21096;-56
2022/04/07 08:40:42;;;;;;;0.70;0.10;;;;;;;11.06;100.00;95834.78;10457891;28;20142;-54
2022/04/07 08:45:46;;;;;;;1.35;0.20;;;;;;;11.06;100.00;95850.97;10459037;28;20082;-53
2022/04/07 08:50:53;;;;;;;0.10;0.10;;;;;;;11.21;100.00;95810.13;10457830;28;20064;-55
2022/04/07 08:55:58;;;;;;;0.15;0.10;;;;;;;11.25;100.00;95799.69;10463191;28;20480;-58
2022/04/07 09:01:01;;;;;;;0.57;0.10;;;;;;;11.34;100.00;95801.03;10440945;28;20488;-58
2022/04/07 09:06:06;;;;;;;0.32;0.25;;;;;;;11.38;100.00;95775.25;10459949;28;20123;-52
2022/04/07 09:11:11;;;;;;;0.10;0.10;;;;;;;11.38;100.00;95772.53;10457474;28;20040;-50
2022/04/07 09:16:16;;;;;;;1.27;0.17;;;;;;;11.43;100.00;95746.78;10458788;28;20556;-55
2022/04/07 09:21:25;;;;;;;1.55;0.20;;;;;;;11.55;100.00;95739.53;10460706;28;20048;-55
2022/04/07 09:26:29;;;;;;;2.75;0.40;;;;;;;11.90;100.00;95719.81;10463420;28;20508;-54
2022/04/07 09:31:37;;;;;;;0.30;0.20;;;;;;;12.17;100.00;95703.97;10447678;28;20580;-55
2022/04/07 09:36:42;;;;;;;0.63;0.28;;;;;;;12.13;100.00;95712.78;10465500;28;20067;-52
2022/04/07 09:41:46;;;;;;;0.20;0.20;;;;;;;12.40;100.00;95691.44;10462358;28;20123;-56
2022/04/07 09:46:49;;;;;;;0.40;0.15;;;;;;;12.43;100.00;95665.84;10458629;28;20131;-55
2022/04/07 09:51:59;;;;;;;0.10;0.10;;;;;;;12.44;100.00;95692.63;10453980;28;20060;-55
2022/04/07 09:57:04;;;;;;;0.30;0.20;;;;;;;12.46;100.00;95646.47;10459922;28;20497;-56
2022/04/07 10:02:08;;;;;;;1.25;0.20;;;;;;;12.37;100.00;95635.22;10456162;28;20073;-53
2022/04/07 10:07:14;;;;;;;0.10;0.10;;;;;;;12.38;100.00;95630.66;10455097;28;20040;-57
2022/04/07 10:12:19;;;;;;;0.10;0.10;;;;;;;12.46;100.00;95611.38;10459499;28;20123;-55
2022/04/07 10:17:23;;;;;;;0.15;0.10;;;;;;;12.45;100.00;95618.66;10457460;28;20071;-60
2022/04/07 10:22:47;;;;;;;0.93;0.10;;;;;;;12.18;100.00;95594.94;10439968;28;20053;-52
2022/04/07 10:27:53;;;;;;;0.30;0.00;;;;;;;12.33;100.00;95575.50;10457575;28;20400;-56
2022/04/07 10:32:58;;;;;;;0.52;0.13;;;;;;;12.27;100.00;95594.56;10456078;28;20045;-54
2022/04/07 10:38:05;;;;;;;0.28;0.10;;;;;;;12.29;100.00;95574.34;10456986;28;20515;-54
2022/04/07 10:43:11;;;;;;;1.35;0.00;;;;;;;12.31;100.00;95580.34;10461023;28;20496;-53
2022/04/07 10:48:18;;;;;;;0.15;0.08;;;;;;;12.27;100.00;95584.59;10462960;28;20500;-53
2022/04/07 10:53:25;;;;;;;0.00;0.00;;;;;;;12.30;100.00;95545.50;10463331;28;20563;-55
2022/04/07 10:58:49;;;;;;;1.48;0.10;;;;;;;12.37;100.00;95546.16;10467224;28;20113;-59
2022/04/07 11:04:44;;;;;;;0.00;0.00;;;;;;;12.23;100.00;95537.56;10464693;28;20140;-59
2022/04/07 11:09:52;;;;;;;0.52;0.20;;;;;;;12.17;100.00;95530.44;10465287;28;20079;-58
2022/04/07 11:15:24;;;;;;;0.30;0.20;;;;;;;11.99;100.00;95501.78;10462621;28;20496;-56
2022/04/07 11:20:28;;;;;;;0.05;0.03;;;;;;;11.99;100.00;95516.09;10460165;28;20102;-55
2022/04/07 11:25:35;;;;;;;0.00;0.00;;;;;;;12.00;100.00;95479.13;10462160;28;20129;-58
2022/04/07 11:30:43;;;;;;;0.28;0.10;;;;;;;12.06;100.00;95448.47;10460057;28;20040;-55
2022/04/07 11:36:12;;;;;;;0.63;0.13;;;;;;;12.17;100.00;95449.47;10464449;28;20119;-57
2022/04/07 11:41:18;;;;;;;0.30;0.10;;;;;;;12.30;100.00;95435.63;10459114;28;20055;-53
2022/04/07 11:46:26;;;;;;;0.57;0.10;;;;;;;12.21;100.00;95422.81;10447177;28;20515;-60
2022/04/07 11:51:37;;;;;;;0.10;0.10;;;;;;;12.33;100.00;95393.88;10464105;28;20107;-55
2022/04/07 11:56:42;;;;;;;0.70;0.10;;;;;;;12.27;100.00;95365.97;10460640;28;20051;-57
2022/04/07 12:01:46;;;;;;;0.00;0.00;;;;;;;12.36;100.00;95385.25;10461980;28;20041;-56
2022/04/07 12:06:49;;;;;;;0.38;0.10;;;;;;;12.38;100.00;95366.94;10460115;28;20040;-60
2022/04/07 12:11:55;;;;;;;1.85;0.20;;;;;;;12.33;100.00;95391.16;10438852;28;20056;-56
2022/04/07 12:16:58;;;;;;;0.15;0.10;;;;;;;12.33;100.00;95361.47;10461035;28;20063;-57
2022/04/07 12:22:02;;;;;;;0.15;0.10;;;;;;;12.41;100.00;95338.63;10459915;28;20063;-57
2022/04/07 12:27:08;;;;;;;0.10;0.10;;;;;;;12.46;100.00;95320.63;10462297;28;20162;-59
2022/04/07 12:32:11;;;;;;;0.28;0.10;;;;;;;12.55;100.00;95321.00;10457912;28;20512;-57
2022/04/07 12:37:27;;;;;;;0.70;0.20;;;;;;;12.61;100.00;95292.16;10461034;28;20073;-54
2022/04/07 12:42:32;;;;;;;0.10;0.10;;;;;;;12.88;100.00;95278.69;10458058;28;20306;-54
2022/04/07 12:47:35;;;;;;;0.28;0.10;;;;;;;13.01;100.00;95307.22;10459455;28;20411;-58
2022/04/07 12:52:41;;;;;;;0.20;0.10;;;;;;;12.90;100.00;95309.00;10457909;22;20080;-80
2022/04/07 12:57:46;;;;;;;1.23;0.22;;;;;;;12.87;100.00;95303.28;10440932;28;20107;-80
2022/04/07 13:03:14;;;;;;;0.10;0.10;;;;;;;12.71;100.00;95259.06;10440338;28;20053;-78
2022/04/07 13:08:17;;;;;;;0.75;0.10;;;;;;;12.68;100.00;95273.06;10458214;28;20744;-81
2022/04/07 13:13:21;;;;;;;0.80;0.10;;;;;;;12.65;100.00;95236.59;10458701;28;20045;-81
2022/04/07 13:18:24;;;;;;;0.00;0.00;;;;;;;12.57;100.00;95232.47;10456440;28;20091;-81
2022/04/07 13:23:27;;;;;;;0.05;0.05;;;;;;;12.50;100.00;95229.16;10451634;28;20064;-80
2022/04/07 13:28:32;;;;;;;0.75;0.05;;;;;;;12.37;100.00;95205.25;10453838;28;20049;-79
2022/04/07 13:33:35;;;;;;;2.42;0.10;;;;;;;12.38;100.00;95210.38;10454711;28;20045;-80
2022/04/07 13:38:38;;;;;;;0.20;0.10;;;;;;;12.41;100.00;95182.06;10448089;28;20049;-80
2022/04/07 13:43:43;;;;;;;0.55;0.10;;;;;;;12.39;100.00;95155.31;10449531;28;20037;-79
2022/04/07 13:48:46;;;;;;;0.80;0.10;;;;;;;12.40;100.00;95159.66;10437165;28;20049;-79
2022/04/07 13:53:50;;;;;;;0.30;0.00;;;;;;;12.37;100.00;95170.94;10445702;28;20075;-80
2022/04/07 13:58:54;;;;;;;0.35;0.08;;;;;;;12.43;100.00;95166.41;10445588;28;20044;-80
2022/04/07 14:03:57;;;;;;;0.25;0.10;;;;;;;12.39;100.00;95159.91;10451074;28;20053;-79
2022/04/07 14:09:01;;;;;;;0.30;0.10;;;;;;;12.29;100.00;95166.81;10454107;28;20567;-80
2022/04/07 14:14:05;;;;;;;2.83;0.10;;;;;;;12.14;100.00;95197.13;10452905;28;20144;-79
2022/04/07 14:19:08;;;;;;;1.00;0.20;;;;;;;11.77;100.00;95231.94;10449133;28;20551;-80
2022/04/07 14:24:12;;;;;;;4.18;0.50;;;;;;;10.98;100.00;95336.81;10439924;28;20041;-79
2022/04/07 14:29:19;;;;;;;9.93;1.10;;;;;;;8.21;100.00;95399.50;10433883;28;20060;-84
2022/04/07 14:34:26;;;;;;;3.35;0.65;;;;;;;7.56;100.00;95412.19;10450641;28;20040;-83
2022/04/07 14:39:59;;;;;;;2.28;0.43;;;;;;;7.35;100.00;95379.34;10466928;28;20056;-81
2022/04/07 14:45:05;;;;;;;1.92;0.50;;;;;;;7.32;100.00;95368.25;10470210;28;20040;-86
2022/04/07 14:50:09;;;;;;;1.77;0.40;;;;;;;7.39;100.00;95328.88;10441543;28;20103;-83
2022/04/07 14:55:12;;;;;;;1.25;0.50;;;;;;;7.51;100.00;95323.63;10435181;28;20542;-83
2022/04/07 15:00:17;;;;;;;1.08;0.40;;;;;;;7.69;100.00;95334.41;10452782;28;20061;-83
2022/04/07 15:05:21;;;;;;;1.45;0.30;;;;;;;8.00;100.00;95343.38;10437112;28;20076;-82
2022/04/07 15:10:24;;;;;;;0.68;0.22;;;;;;;8.10;100.00;95360.81;10432852;28;20116;-83
2022/04/07 15:15:30;;;;;;;1.02;0.30;;;;;;;8.27;100.00;95305.59;10437405;28;20128;-82
2022/04/07 15:20:33;;;;;;;0.63;0.20;;;;;;;8.42;100.00;95333.88;10438364;28;20055;-82
2022/04/07 15:25:38;;;;;;;0.60;0.25;;;;;;;8.62;100.00;95331.81;10455651;28;20194;-83
2022/04/07 15:30:43;;;;;;;1.10;0.30;;;;;;;8.78;100.00;95332.22;10454717;28;20072;-83
2022/04/07 15:35:51;;;;;;;0.52;0.20;;;;;;;9.39;100.00;95278.50;10436916;28;20053;-81
2022/04/07 15:41:00;;;;;;;0.40;0.20;;;;;;;10.18;100.00;95290.78;10451828;28;20405;-82
2022/04/07 15:46:04;;;;;;;0.35;0.10;;;;;;;10.51;100.00;95277.75;10449021;28;20048;-82
2022/04/07 15:51:09;;;;;;;0.63;0.20;;;;;;;10.66;100.00;95288.81;10434520;28;20052;-82
2022/04/07 15:56:12;;;;;;;0.35;0.13;;;;;;;10.86;100.00;95282.19;10432182;28;20509;-82
2022/04/07 16:01:16;;;;;;;0.40;0.20;;;;;;;10.95;100.00;95302.28;10436845;28;20557;-82
2022/04/07 16:06:19;;;;;;;0.20;0.20;;;;;;;11.06;100.00;95311.38;10451640;28;20201;-82
2022/04/07 16:11:23;;;;;;;0.20;0.20;;;;;;;11.21;100.00;95308.16;10433485;28;20045;-82
2022/04/07 16:16:27;;;;;;;0.13;0.10;;;;;;;11.27;100.00;95304.47;10433778;28;20055;-81
2022/04/07 16:21:30;;;;;;;0.38;0.20;;;;;;;11.31;100.00;95292.16;10447519;28;20456;-81
2022/04/07 16:26:34;;;;;;;0.40;0.20;;;;;;;11.27;100.00;95296.38;10438202;28;20056;-81
2022/04/07 16:31:38;;;;;;;0.20;0.20;;;;;;;11.31;100.00;95294.03;10448039;28;20075;-84
2022/04/07 16:36:42;;;;;;;0.20;0.20;;;;;;;11.45;100.00;95300.75;10447059;28;20063;-82
2022/04/07 16:41:47;;;;;;;0.57;0.30;;;;;;;11.36;100.00;95321.88;10445930;28;20061;-82
2022/04/07 16:46:52;;;;;;;0.40;0.10;;;;;;;11.40;96.13;95324.94;10431478;28;20044;-82
2022/04/07 16:51:55;;;;;;;0.75;0.20;;;;;;;11.28;100.00;95351.91;10448538;28;20059;-84
2022/04/07 16:56:58;;;;;;;0.28;0.20;;;;;;;11.20;100.00;95333.44;10428864;28;20045;-83
2022/04/07 17:02:04;;;;;;;0.50;0.20;;;;;;;11.19;79.22;95334.50;10445769;28;20445;-84
2022/04/07 17:07:08;;;;;;;0.73;0.30;;;;;;;11.09;89.40;95376.38;10433665;28;20138;-83
2022/04/07 17:12:15;;;;;;;1.45;0.22;;;;;;;10.88;84.74;95364.38;10432885;28;20071;-83
2022/04/07 17:17:19;;;;;;;0.50;0.30;;;;;;;10.56;100.00;95363.97;10458719;28;20064;-82
2022/04/07 17:22:22;;;;;;;0.35;0.20;;;;;;;10.51;100.00;95353.91;10448898;28;20120;-82
2022/04/07 17:27:26;;;;;;;1.08;0.22;;;;;;;10.30;100.00;95374.13;10432177;28;20517;-81
2022/04/07 17:32:30;;;;;;;0.40;0.38;;;;;;;10.26;100.00;95400.69;10447362;28;20903;-83
2022/04/07 17:37:34;;;;;;;0.60;0.30;;;;;;;10.28;100.00;95397.78;10455665;28;20079;-81
2022/04/07 17:42:38;;;;;;;1.00;0.40;;;;;;;9.81;100.00;95441.56;10474882;28;20087;-78
2022/04/07 17:47:42;;;;;;;2.47;0.50;;;;;;;9.05;100.00;95469.66;10440101;28;20067;-80
2022/04/07 17:52:46;;;;;;;2.38;0.85;;;;;;;8.68;100.00;95485.75;10433556;28;20080;-80
2022/04/07 17:57:49;;;;;;;2.63;0.60;;;;;;;8.34;100.00;95517.38;10457717;28;20049;-80
2022/04/07 18:02:55;;;;;;;1.35;0.60;;;;;;;8.20;100.00;95508.59;10445936;28;20365;-80
2022/04/07 18:07:58;;;;;;;1.30;0.63;;;;;;;8.02;100.00;95518.25;10455698;28;20155;-80
2022/04/07 18:13:01;;;;;;;1.48;0.70;;;;;;;7.92;100.00;95515.22;10440759;28;20048;-81
2022/04/07 18:18:07;;;;;;;1.23;0.57;;;;;;;7.88;100.00;95548.03;10462160;28;20060;-81
2022/04/07 18:23:10;;;;;;;1.92;0.70;;;;;;;7.82;100.00;95555.88;10444870;28;20447;-80
2022/04/07 18:28:14;;;;;;;1.92;0.75;;;;;;;7.82;100.00;95579.19;10463724;28;20140;-80
2022/04/07 18:33:19;;;;;;;2.33;0.70;;;;;;;7.85;100.00;95590.31;10487562;28;20037;-79
2022/04/07 18:38:52;;;;;;;1.23;0.70;;;;;;;7.86;100.00;95588.44;10476287;28;20143;-79
2022/04/07 18:43:55;;;;;;;1.85;0.65;;;;;;;7.77;100.00;95560.25;10483565;28;20080;-79
2022/04/07 18:48:59;;;;;;;2.00;0.90;;;;;;;7.65;100.00;95579.66;10498835;28;20045;-79
2022/04/07 18:54:03;;;;;;;2.25;0.70;;;;;;;7.60;100.00;95598.22;10481545;28;20066;-79
2022/04/07 18:59:06;;;;;;;2.20;0.90;;;;;;;7.70;100.00;95598.59;10468348;28;20047;-81
2022/04/07 19:04:12;;;;;;;2.03;0.60;;;;;;;7.72;100.00;95617.97;10464253;28;20072;-80
2022/04/07 19:09:17;;;;;;;2.45;0.80;;;;;;;7.59;100.00;95619.88;10444415;28;20144;-81
2022/04/07 19:14:20;;;;;;;2.65;0.82;;;;;;;7.61;100.00;95594.50;10439217;28;20124;-80
2022/04/07 19:19:25;;;;;;;2.60;0.88;;;;;;;7.56;100.00;95616.59;10459701;28;20394;-82
2022/04/07 19:24:29;;;;;;;2.08;0.82;;;;;;;7.60;100.00;95619.66;10447106;28;20203;-81
2022/04/07 19:29:33;;;;;;;1.58;0.70;;;;;;;7.64;100.00;95623.56;10462852;28;20079;-81
2022/04/07 19:34:39;;;;;;;4.35;0.77;;;;;;;7.70;100.00;95654.84;10452488;28;20049;-79
2022/04/07 19:39:42;;;;;;;1.77;0.80;;;;;;;7.75;100.00;95702.50;10466526;28;20097;-81
2022/04/07 19:44:47;;;;;;;1.98;0.80;;;;;;;8.02;100.00;95676.41;10469188;28;20049;-81
2022/04/07 19:49:51;;;;;;;3.15;0.90;;;;;;;7.99;100.00;95700.13;10447212;28;20079;-80
2022/04/07 19:54:55;;;;;;;1.50;0.60;;;;;;;7.46;100.00;95766.19;10462725;28;20481;-81
2022/04/07 19:59:58;;;;;;;1.67;0.68;;;;;;;6.90;100.00;95728.09;10459846;28;20123;-80
2022/04/07 20:05:03;;;;;;;1.05;0.50;;;;;;;6.37;100.00;95811.72;10461058;28;20060;-80
2022/04/07 20:10:08;;;;;;;1.60;0.60;;;;;;;5.93;100.00;95807.56;10446367;28;20060;-82
2022/04/07 20:15:12;;;;;;;3.28;0.70;;;;;;;5.67;100.00;95798.34;10442847;28;20160;-80
2022/04/07 20:20:16;;;;;;;2.25;0.65;;;;;;;5.50;100.00;95803.97;10452377;28;20044;-82
2022/04/07 20:25:22;;;;;;;1.88;0.68;;;;;;;5.45;100.00;95817.09;10456261;28;20072;-80
2022/04/07 20:30:27;;;;;;;1.58;0.70;;;;;;;5.36;100.00;95810.22;10444423;28;21289;-79
2022/04/07 20:35:31;;;;;;;1.52;0.65;;;;;;;5.36;100.00;95800.41;10447824;28;20327;-82
2022/04/07 20:40:35;;;;;;;1.25;0.70;;;;;;;5.37;100.00;95830.56;10460875;28;20040;-81
2022/04/07 20:45:41;;;;;;;1.95;0.77;;;;;;;5.41;100.00;95850.53;10449079;28;20079;-79
2022/04/07 20:50:45;;;;;;;1.55;0.60;;;;;;;5.46;100.00;95864.16;10477090;28;20053;-79
2022/04/07 20:55:49;;;;;;;1.95;0.57;;;;;;;5.55;100.00;95881.69;10436932;28;20045;-78
2022/04/07 21:00:54;;;;;;;1.73;0.50;;;;;;;5.46;100.00;95904.19;10463737;28;20076;-82
2022/04/07 21:05:58;;;;;;;1.30;0.50;;;;;;;5.51;100.00;95901.75;10426867;28;20142;-82
2022/04/07 21:11:07;;;;;;;1.05;0.40;;;;;;;5.60;100.00;95901.63;10433910;28;20122;-82
2022/04/07 21:16:10;;;;;;;1.05;0.60;;;;;;;5.62;100.00;95888.91;10451834;28;20107;-82
2022/04/07 21:21:15;;;;;;;3.38;0.40;;;;;;;5.68;100.00;95904.19;10437383;28;20049;-82
2022/04/07 21:26:18;;;;;;;1.20;0.40;;;;;;;5.71;100.00;95915.31;10433972;28;20131;-81
2022/04/07 21:31:21;;;;;;;0.95;0.40;;;;;;;5.66;100.00;95906.22;10441755;28;20512;-80
2022/04/07 21:36:25;;;;;;;1.05;0.43;;;;;;;5.59;100.00;95862.59;10435555;28;20049;-82
2022/04/07 21:41:28;;;;;;;0.95;0.47;;;;;;;5.71;100.00;95867.22;10450421;28;20045;-82
2022/04/07 21:46:31;;;;;;;1.50;0.60;;;;;;;5.86;100.00;95843.06;10409266;23;20049;-62
2022/04/07 21:51:38;;;;;;;1.88;0.68;;;;;;;6.03;100.00;95842.81;10383278;28;20041;-62
2022/04/07 21:56:42;;;;;;;1.70;0.60;;;;;;;6.20;100.00;95855.84;10387989;28;20042;-62
2022/04/07 22:01:46;;;;;;;1.92;0.50;;;;;;;6.28;100.00;95866.41;10389575;28;20048;-62
2022/04/07 22:06:51;;;;;;;1.17;0.60;;;;;;;6.53;100.00;95885.44;10383860;28;20041;-63
2022/04/07 22:11:55;;;;;;;2.13;0.63;;;;;;;6.54;100.00;95848.81;10378977;28;20144;-62
2022/04/07 22:16:59;;;;;;;2.42;0.60;;;;;;;6.59;100.00;95863.22;10384885;28;20052;-63
2022/04/07 22:22:03;;;;;;;1.63;0.80;;;;;;;6.81;100.00;95891.72;10368770;28;20826;-62
2022/04/07 22:27:07;;;;;;;2.35;0.70;;;;;;;6.73;100.00;95884.69;10387037;28;20073;-63
2022/04/07 22:32:11;;;;;;;1.67;0.68;;;;;;;6.83;100.00;95903.88;10379860;28;20092;-63
2022/04/07 22:37:15;;;;;;;2.40;0.70;;;;;;;6.82;100.00;95906.75;10393680;28;20118;-63
2022/04/07 22:42:20;;;;;;;2.63;0.93;;;;;;;6.93;100.00;95911.53;10382275;28;20554;-63
2022/04/07 22:47:25;;;;;;;2.05;0.80;;;;;;;6.93;100.00;95914.22;10388381;28;20074;-64
2022/04/07 22:52:31;;;;;;;4.82;0.93;;;;;;;6.99;100.00;95907.22;10390948;28;20052;-63
2022/04/07 22:57:35;;;;;;;1.98;0.90;;;;;;;7.11;100.00;95910.97;10396511;28;20055;-63
2022/04/07 23:02:38;;;;;;;1.48;0.63;;;;;;;7.12;100.00;95903.75;10396370;28;20498;-62
2022/04/07 23:07:44;;;;;;;2.60;0.80;;;;;;;7.16;100.00;95891.63;10394843;28;20045;-63
2022/04/07 23:12:48;;;;;;;2.55;0.90;;;;;;;7.23;100.00;95904.00;10390319;28;20140;-61
2022/04/07 23:17:52;;;;;;;2.58;0.98;;;;;;;7.23;100.00;95901.31;10390467;28;20527;-64
2022/04/07 23:22:57;;;;;;;3.30;1.00;;;;;;;7.29;100.00;95918.44;10388204;28;20125;-63
2022/04/07 23:28:00;;;;;;;4.15;1.10;;;;;;;7.38;100.00;95909.19;10373303;28;20484;-63
2022/04/07 23:33:04;;;;;;;4.43;1.10;;;;;;;7.32;100.00;95919.88;10393836;28;20497;-61